sensor_id;sensor_type;location;lat;lon;timestamp;temperature;humidity
24522;DHT22;12680;57.804;12.190;2023-04-25T00:02:13;12.00;99.90
24522;DHT22;12680;57.804;12.190;2023-04-25T00:04:40;12.10;99.90
24522;DHT22;12680;57.804;12.190;2023-04-25T00:07:07;10.80;99.90
24522;DHT22;12680;57.804;12.190;2023-04-25T00:09:34;10.80;99.90
24522;DHT22;12680;57.804;12.190;2023-04-25T00:12:01;11.10;99.90
24522;DHT22;12680;57.804;12.190;2023-04-25T00:14:29;10.80;99.90
24522;DHT22;12680;57.804;12.190;2023-04-25T00:16:56;10.70;99.90
24522;DHT22;12680;57.804;12.190;2023-04-25T00:19:23;10.70;99.90
24522;DHT22;12680;57.804;12.190;2023-04-25T00:21:49;11.80;99.90
24522;DHT22;12680;57.804;12.190;2023-04-25T00:24:16;10.70;99.90
24522;DHT22;12680;57.804;12.190;2023-04-25T00:26:43;10.60;99.90
24522;DHT22;12680;57.804;12.190;2023-04-25T00:29:10;10.60;99.90
24522;DHT22;12680;57.804;12.190;2023-04-25T00:31:37;12.30;99.90
24522;DHT22;12680;57.804;12.190;2023-04-25T00:34:03;11.80;99.90
24522;DHT22;12680;57.804;12.190;2023-04-25T00:36:31;10.50;99.90
24522;DHT22;12680;57.804;12.190;2023-04-25T00:38:57;10.50;99.90
24522;DHT22;12680;57.804;12.190;2023-04-25T00:41:25;10.40;99.90
24522;DHT22;12680;57.804;12.190;2023-04-25T00:43:54;10.40;99.90
24522;DHT22;12680;57.804;12.190;2023-04-25T00:46:21;10.40;99.90
24522;DHT22;12680;57.804;12.190;2023-04-25T00:48:48;10.40;99.90
24522;DHT22;12680;57.804;12.190;2023-04-25T00:51:20;10.30;99.90
24522;DHT22;12680;57.804;12.190;2023-04-25T00:53:50;10.30;99.90
24522;DHT22;12680;57.804;12.190;2023-04-25T00:56:18;11.40;99.90
24522;DHT22;12680;57.804;12.190;2023-04-25T00:58:45;10.30;99.90
24522;DHT22;12680;57.804;12.190;2023-04-25T01:01:12;10.30;99.90
24522;DHT22;12680;57.804;12.190;2023-04-25T01:03:40;10.30;99.90
24522;DHT22;12680;57.804;12.190;2023-04-25T01:06:09;10.80;99.90
24522;DHT22;12680;57.804;12.190;2023-04-25T01:08:38;10.30;99.90
24522;DHT22;12680;57.804;12.190;2023-04-25T01:11:06;10.30;99.90
24522;DHT22;12680;57.804;12.190;2023-04-25T01:13:34;10.30;99.90
24522;DHT22;12680;57.804;12.190;2023-04-25T01:16:02;10.30;99.90
24522;DHT22;12680;57.804;12.190;2023-04-25T01:18:29;10.20;99.90
24522;DHT22;12680;57.804;12.190;2023-04-25T01:20:55;10.20;99.90
24522;DHT22;12680;57.804;12.190;2023-04-25T01:23:23;10.20;99.90
24522;DHT22;12680;57.804;12.190;2023-04-25T01:25:50;11.90;99.90
24522;DHT22;12680;57.804;12.190;2023-04-25T01:28:17;11.90;99.90
24522;DHT22;12680;57.804;12.190;2023-04-25T01:30:45;10.10;99.90
24522;DHT22;12680;57.804;12.190;2023-04-25T01:33:14;10.10;99.90
24522;DHT22;12680;57.804;12.190;2023-04-25T01:35:42;10.10;99.90
24522;DHT22;12680;57.804;12.190;2023-04-25T01:38:08;11.80;99.90
24522;DHT22;12680;57.804;12.190;2023-04-25T01:40:38;10.10;99.90
24522;DHT22;12680;57.804;12.190;2023-04-25T01:43:07;10.10;99.90
24522;DHT22;12680;57.804;12.190;2023-04-25T01:45:38;10.10;99.90
24522;DHT22;12680;57.804;12.190;2023-04-25T01:48:09;10.10;99.90
24522;DHT22;12680;57.804;12.190;2023-04-25T01:50:38;10.20;99.90
24522;DHT22;12680;57.804;12.190;2023-04-25T01:53:05;10.10;99.90
24522;DHT22;12680;57.804;12.190;2023-04-25T01:55:32;10.10;99.90
24522;DHT22;12680;57.804;12.190;2023-04-25T01:57:58;10.10;99.90
24522;DHT22;12680;57.804;12.190;2023-04-25T02:00:27;10.00;99.90
24522;DHT22;12680;57.804;12.190;2023-04-25T02:02:53;10.00;99.90
24522;DHT22;12680;57.804;12.190;2023-04-25T02:05:20;10.00;99.90
24522;DHT22;12680;57.804;12.190;2023-04-25T02:07:47;9.90;99.90
24522;DHT22;12680;57.804;12.190;2023-04-25T02:10:14;9.90;99.90
24522;DHT22;12680;57.804;12.190;2023-04-25T02:12:41;9.90;99.90
24522;DHT22;12680;57.804;12.190;2023-04-25T02:15:08;9.90;99.90
24522;DHT22;12680;57.804;12.190;2023-04-25T02:17:35;9.80;99.90
24522;DHT22;12680;57.804;12.190;2023-04-25T02:20:02;9.70;99.90
24522;DHT22;12680;57.804;12.190;2023-04-25T02:22:29;9.80;99.90
24522;DHT22;12680;57.804;12.190;2023-04-25T02:24:57;9.80;99.90
24522;DHT22;12680;57.804;12.190;2023-04-25T02:27:24;9.70;99.90
24522;DHT22;12680;57.804;12.190;2023-04-25T02:29:51;9.70;99.90
24522;DHT22;12680;57.804;12.190;2023-04-25T02:32:18;10.60;99.90
24522;DHT22;12680;57.804;12.190;2023-04-25T02:34:45;9.70;99.90
24522;DHT22;12680;57.804;12.190;2023-04-25T02:37:12;9.70;99.90
24522;DHT22;12680;57.804;12.190;2023-04-25T02:39:38;9.70;99.90
24522;DHT22;12680;57.804;12.190;2023-04-25T02:42:05;9.70;99.90
24522;DHT22;12680;57.804;12.190;2023-04-25T02:44:32;9.60;99.90
24522;DHT22;12680;57.804;12.190;2023-04-25T02:46:58;10.80;99.90
24522;DHT22;12680;57.804;12.190;2023-04-25T02:49:25;9.60;99.90
24522;DHT22;12680;57.804;12.190;2023-04-25T02:51:52;9.60;99.90
24522;DHT22;12680;57.804;12.190;2023-04-25T02:54:19;9.60;99.90
24522;DHT22;12680;57.804;12.190;2023-04-25T02:56:45;9.60;99.90
24522;DHT22;12680;57.804;12.190;2023-04-25T02:59:12;9.60;99.90
24522;DHT22;12680;57.804;12.190;2023-04-25T03:01:39;9.60;99.90
24522;DHT22;12680;57.804;12.190;2023-04-25T03:04:06;9.60;99.90
24522;DHT22;12680;57.804;12.190;2023-04-25T03:06:33;9.60;99.90
24522;DHT22;12680;57.804;12.190;2023-04-25T03:08:59;10.40;99.90
24522;DHT22;12680;57.804;12.190;2023-04-25T03:11:26;9.50;99.90
24522;DHT22;12680;57.804;12.190;2023-04-25T03:13:53;9.50;99.90
24522;DHT22;12680;57.804;12.190;2023-04-25T03:16:20;9.50;99.90
24522;DHT22;12680;57.804;12.190;2023-04-25T03:18:47;10.50;99.90
24522;DHT22;12680;57.804;12.190;2023-04-25T03:21:14;9.40;99.90
24522;DHT22;12680;57.804;12.190;2023-04-25T03:23:41;10.50;99.90
24522;DHT22;12680;57.804;12.190;2023-04-25T03:26:08;9.30;99.90
24522;DHT22;12680;57.804;12.190;2023-04-25T03:28:34;10.90;99.90
24522;DHT22;12680;57.804;12.190;2023-04-25T03:31:01;9.30;99.90
24522;DHT22;12680;57.804;12.190;2023-04-25T03:33:28;9.30;99.90
24522;DHT22;12680;57.804;12.190;2023-04-25T03:35:55;9.30;99.90
24522;DHT22;12680;57.804;12.190;2023-04-25T03:38:21;9.30;99.90
24522;DHT22;12680;57.804;12.190;2023-04-25T03:40:49;9.20;99.90
24522;DHT22;12680;57.804;12.190;2023-04-25T03:43:17;9.30;99.90
24522;DHT22;12680;57.804;12.190;2023-04-25T03:45:44;9.30;99.90
24522;DHT22;12680;57.804;12.190;2023-04-25T03:48:11;9.30;99.90
24522;DHT22;12680;57.804;12.190;2023-04-25T03:50:38;9.30;99.90
24522;DHT22;12680;57.804;12.190;2023-04-25T03:53:04;10.10;99.90
24522;DHT22;12680;57.804;12.190;2023-04-25T03:55:31;9.30;99.90
24522;DHT22;12680;57.804;12.190;2023-04-25T03:57:58;9.30;99.90
24522;DHT22;12680;57.804;12.190;2023-04-25T04:00:25;9.30;99.90
24522;DHT22;12680;57.804;12.190;2023-04-25T04:02:52;10.50;99.90
24522;DHT22;12680;57.804;12.190;2023-04-25T04:05:19;9.30;99.90
24522;DHT22;12680;57.804;12.190;2023-04-25T04:07:46;9.30;99.90
24522;DHT22;12680;57.804;12.190;2023-04-25T04:10:13;10.40;99.90
24522;DHT22;12680;57.804;12.190;2023-04-25T04:12:39;9.30;99.90
24522;DHT22;12680;57.804;12.190;2023-04-25T04:15:07;9.30;99.90
24522;DHT22;12680;57.804;12.190;2023-04-25T04:17:34;9.40;99.90
24522;DHT22;12680;57.804;12.190;2023-04-25T04:20:01;9.40;99.90
24522;DHT22;12680;57.804;12.190;2023-04-25T04:22:29;9.30;99.90
24522;DHT22;12680;57.804;12.190;2023-04-25T04:24:56;9.40;99.90
24522;DHT22;12680;57.804;12.190;2023-04-25T04:27:23;9.40;99.90
24522;DHT22;12680;57.804;12.190;2023-04-25T04:29:50;9.40;99.90
24522;DHT22;12680;57.804;12.190;2023-04-25T04:32:18;9.40;99.90
24522;DHT22;12680;57.804;12.190;2023-04-25T04:34:45;11.10;99.90
24522;DHT22;12680;57.804;12.190;2023-04-25T04:37:13;9.40;99.90
24522;DHT22;12680;57.804;12.190;2023-04-25T04:39:41;9.40;99.90
24522;DHT22;12680;57.804;12.190;2023-04-25T04:42:08;9.40;99.90
24522;DHT22;12680;57.804;12.190;2023-04-25T04:44:35;9.40;99.90
24522;DHT22;12680;57.804;12.190;2023-04-25T04:47:01;9.40;99.90
24522;DHT22;12680;57.804;12.190;2023-04-25T04:49:32;9.40;99.90
24522;DHT22;12680;57.804;12.190;2023-04-25T04:51:59;9.50;99.90
24522;DHT22;12680;57.804;12.190;2023-04-25T04:54:27;9.50;99.90
24522;DHT22;12680;57.804;12.190;2023-04-25T04:56:54;10.80;99.90
24522;DHT22;12680;57.804;12.190;2023-04-25T04:59:21;9.50;99.90
24522;DHT22;12680;57.804;12.190;2023-04-25T05:01:48;10.50;99.90
24522;DHT22;12680;57.804;12.190;2023-04-25T05:04:14;9.60;99.90
24522;DHT22;12680;57.804;12.190;2023-04-25T05:06:41;9.70;99.90
24522;DHT22;12680;57.804;12.190;2023-04-25T05:09:08;9.70;99.90
24522;DHT22;12680;57.804;12.190;2023-04-25T05:11:35;9.70;99.90
24522;DHT22;12680;57.804;12.190;2023-04-25T05:14:02;11.60;99.90
24522;DHT22;12680;57.804;12.190;2023-04-25T05:16:29;9.80;99.90
24522;DHT22;12680;57.804;12.190;2023-04-25T05:18:56;9.80;99.90
24522;DHT22;12680;57.804;12.190;2023-04-25T05:21:23;10.40;99.90
24522;DHT22;12680;57.804;12.190;2023-04-25T05:23:49;9.90;99.90
24522;DHT22;12680;57.804;12.190;2023-04-25T05:26:17;10.80;99.90
24522;DHT22;12680;57.804;12.190;2023-04-25T05:28:43;9.90;99.90
24522;DHT22;12680;57.804;12.190;2023-04-25T05:31:10;9.90;99.90
24522;DHT22;12680;57.804;12.190;2023-04-25T05:33:37;9.80;99.90
24522;DHT22;12680;57.804;12.190;2023-04-25T05:36:04;9.80;99.90
24522;DHT22;12680;57.804;12.190;2023-04-25T05:38:31;9.80;99.90
24522;DHT22;12680;57.804;12.190;2023-04-25T05:41:00;9.80;99.90
24522;DHT22;12680;57.804;12.190;2023-04-25T05:43:27;10.70;99.90
24522;DHT22;12680;57.804;12.190;2023-04-25T05:45:54;10.80;99.90
24522;DHT22;12680;57.804;12.190;2023-04-25T05:48:21;9.80;99.90
24522;DHT22;12680;57.804;12.190;2023-04-25T05:50:48;10.00;99.90
24522;DHT22;12680;57.804;12.190;2023-04-25T05:53:14;9.90;99.90
24522;DHT22;12680;57.804;12.190;2023-04-25T05:55:41;9.90;99.90
24522;DHT22;12680;57.804;12.190;2023-04-25T05:58:08;11.50;99.90
24522;DHT22;12680;57.804;12.190;2023-04-25T06:00:35;9.90;99.90
24522;DHT22;12680;57.804;12.190;2023-04-25T06:03:01;10.00;99.90
24522;DHT22;12680;57.804;12.190;2023-04-25T06:05:29;10.00;99.90
24522;DHT22;12680;57.804;12.190;2023-04-25T06:07:56;11.80;99.90
24522;DHT22;12680;57.804;12.190;2023-04-25T06:10:23;11.30;99.90
24522;DHT22;12680;57.804;12.190;2023-04-25T06:12:49;10.20;99.90
24522;DHT22;12680;57.804;12.190;2023-04-25T06:15:16;10.30;99.90
24522;DHT22;12680;57.804;12.190;2023-04-25T06:17:54;10.40;99.90
24522;DHT22;12680;57.804;12.190;2023-04-25T06:20:21;12.00;99.90
24522;DHT22;12680;57.804;12.190;2023-04-25T06:22:53;10.50;99.90
24522;DHT22;12680;57.804;12.190;2023-04-25T06:25:20;11.50;99.90
24522;DHT22;12680;57.804;12.190;2023-04-25T06:27:47;10.70;99.90
24522;DHT22;12680;57.804;12.190;2023-04-25T06:30:14;10.70;99.90
24522;DHT22;12680;57.804;12.190;2023-04-25T06:32:41;10.70;99.90
24522;DHT22;12680;57.804;12.190;2023-04-25T06:35:08;10.80;99.90
24522;DHT22;12680;57.804;12.190;2023-04-25T06:37:35;10.70;99.90
24522;DHT22;12680;57.804;12.190;2023-04-25T06:40:02;10.80;99.90
24522;DHT22;12680;57.804;12.190;2023-04-25T06:42:29;10.70;99.90
24522;DHT22;12680;57.804;12.190;2023-04-25T06:44:55;12.40;99.90
24522;DHT22;12680;57.804;12.190;2023-04-25T06:47:22;10.70;99.90
24522;DHT22;12680;57.804;12.190;2023-04-25T06:49:49;10.80;99.90
24522;DHT22;12680;57.804;12.190;2023-04-25T06:52:16;10.60;99.90
24522;DHT22;12680;57.804;12.190;2023-04-25T06:54:44;10.60;99.90
24522;DHT22;12680;57.804;12.190;2023-04-25T06:57:11;10.60;99.90
24522;DHT22;12680;57.804;12.190;2023-04-25T06:59:38;10.60;99.90
24522;DHT22;12680;57.804;12.190;2023-04-25T07:02:05;10.60;99.90
24522;DHT22;12680;57.804;12.190;2023-04-25T07:04:32;10.60;99.90
24522;DHT22;12680;57.804;12.190;2023-04-25T07:06:59;11.10;99.90
24522;DHT22;12680;57.804;12.190;2023-04-25T07:09:29;12.30;99.90
24522;DHT22;12680;57.804;12.190;2023-04-25T07:11:56;10.40;99.90
24522;DHT22;12680;57.804;12.190;2023-04-25T07:14:23;11.00;99.90
24522;DHT22;12680;57.804;12.190;2023-04-25T07:16:50;10.40;99.90
24522;DHT22;12680;57.804;12.190;2023-04-25T07:19:17;10.40;99.90
24522;DHT22;12680;57.804;12.190;2023-04-25T07:21:43;10.50;99.90
24522;DHT22;12680;57.804;12.190;2023-04-25T07:24:10;10.40;99.90
24522;DHT22;12680;57.804;12.190;2023-04-25T07:26:37;11.20;99.90
24522;DHT22;12680;57.804;12.190;2023-04-25T07:29:04;11.20;99.90
24522;DHT22;12680;57.804;12.190;2023-04-25T07:31:31;10.20;99.90
24522;DHT22;12680;57.804;12.190;2023-04-25T07:33:58;10.20;99.90
24522;DHT22;12680;57.804;12.190;2023-04-25T07:36:27;10.80;99.90
24522;DHT22;12680;57.804;12.190;2023-04-25T07:38:54;10.20;99.90
24522;DHT22;12680;57.804;12.190;2023-04-25T07:41:21;10.20;99.90
24522;DHT22;12680;57.804;12.190;2023-04-25T07:43:48;10.10;99.90
24522;DHT22;12680;57.804;12.190;2023-04-25T07:46:14;10.10;99.90
24522;DHT22;12680;57.804;12.190;2023-04-25T07:48:41;10.10;99.90
24522;DHT22;12680;57.804;12.190;2023-04-25T07:51:08;10.00;99.90
24522;DHT22;12680;57.804;12.190;2023-04-25T07:53:35;10.00;99.90
24522;DHT22;12680;57.804;12.190;2023-04-25T07:56:04;10.00;99.90
24522;DHT22;12680;57.804;12.190;2023-04-25T07:58:31;10.00;99.90
24522;DHT22;12680;57.804;12.190;2023-04-25T08:00:57;9.90;99.90
24522;DHT22;12680;57.804;12.190;2023-04-25T08:03:24;11.00;99.90
24522;DHT22;12680;57.804;12.190;2023-04-25T08:05:52;10.00;99.90
24522;DHT22;12680;57.804;12.190;2023-04-25T08:08:19;10.20;99.90
24522;DHT22;12680;57.804;12.190;2023-04-25T08:10:45;10.30;99.90
24522;DHT22;12680;57.804;12.190;2023-04-25T08:13:14;10.40;99.90
24522;DHT22;12680;57.804;12.190;2023-04-25T08:15:41;11.40;99.90
24522;DHT22;12680;57.804;12.190;2023-04-25T08:18:08;11.90;99.90
24522;DHT22;12680;57.804;12.190;2023-04-25T08:20:35;12.00;99.90
24522;DHT22;12680;57.804;12.190;2023-04-25T08:23:02;10.30;99.90
24522;DHT22;12680;57.804;12.190;2023-04-25T08:25:29;10.20;99.90
24522;DHT22;12680;57.804;12.190;2023-04-25T08:27:55;11.30;99.90
24522;DHT22;12680;57.804;12.190;2023-04-25T08:30:23;10.20;99.90
24522;DHT22;12680;57.804;12.190;2023-04-25T08:32:50;10.30;99.90
24522;DHT22;12680;57.804;12.190;2023-04-25T08:35:17;10.30;99.90
24522;DHT22;12680;57.804;12.190;2023-04-25T08:37:44;10.20;99.90
24522;DHT22;12680;57.804;12.190;2023-04-25T08:40:15;10.10;99.90
24522;DHT22;12680;57.804;12.190;2023-04-25T08:42:42;9.90;99.90
24522;DHT22;12680;57.804;12.190;2023-04-25T08:45:10;9.80;99.90
24522;DHT22;12680;57.804;12.190;2023-04-25T08:47:38;9.70;99.90
24522;DHT22;12680;57.804;12.190;2023-04-25T08:50:06;9.70;99.90
24522;DHT22;12680;57.804;12.190;2023-04-25T08:52:43;9.70;99.90
24522;DHT22;12680;57.804;12.190;2023-04-25T08:55:12;10.60;99.90
24522;DHT22;12680;57.804;12.190;2023-04-25T08:57:41;9.60;99.90
24522;DHT22;12680;57.804;12.190;2023-04-25T09:00:11;9.60;99.90
24522;DHT22;12680;57.804;12.190;2023-04-25T09:02:39;9.60;99.90
24522;DHT22;12680;57.804;12.190;2023-04-25T09:05:08;9.60;99.90
24522;DHT22;12680;57.804;12.190;2023-04-25T09:07:36;9.50;99.90
24522;DHT22;12680;57.804;12.190;2023-04-25T09:10:03;9.50;99.90
24522;DHT22;12680;57.804;12.190;2023-04-25T09:12:30;9.50;99.90
24522;DHT22;12680;57.804;12.190;2023-04-25T09:15:09;10.50;99.90
24522;DHT22;12680;57.804;12.190;2023-04-25T09:17:37;9.40;99.90
24522;DHT22;12680;57.804;12.190;2023-04-25T09:20:12;9.70;99.90
24522;DHT22;12680;57.804;12.190;2023-04-25T09:22:39;9.40;99.90
24522;DHT22;12680;57.804;12.190;2023-04-25T09:25:12;9.40;99.90
24522;DHT22;12680;57.804;12.190;2023-04-25T09:27:52;9.50;99.90
24522;DHT22;12680;57.804;12.190;2023-04-25T09:30:29;9.60;99.90
24522;DHT22;12680;57.804;12.190;2023-04-25T09:32:57;9.70;99.90
24522;DHT22;12680;57.804;12.190;2023-04-25T09:35:38;9.80;99.90
24522;DHT22;12680;57.804;12.190;2023-04-25T09:38:10;9.90;99.90
24522;DHT22;12680;57.804;12.190;2023-04-25T09:40:46;9.90;99.90
24522;DHT22;12680;57.804;12.190;2023-04-25T09:43:23;9.90;99.90
24522;DHT22;12680;57.804;12.190;2023-04-25T09:45:52;9.90;99.90
24522;DHT22;12680;57.804;12.190;2023-04-25T09:48:21;9.80;99.90
24522;DHT22;12680;57.804;12.190;2023-04-25T09:51:08;9.70;99.90
24522;DHT22;12680;57.804;12.190;2023-04-25T09:53:38;9.70;99.90
24522;DHT22;12680;57.804;12.190;2023-04-25T09:56:07;10.30;99.90
24522;DHT22;12680;57.804;12.190;2023-04-25T09:58:35;9.50;99.90
24522;DHT22;12680;57.804;12.190;2023-04-25T10:01:07;10.80;99.90
24522;DHT22;12680;57.804;12.190;2023-04-25T10:03:35;10.10;99.90
24522;DHT22;12680;57.804;12.190;2023-04-25T10:06:07;9.10;99.90
24522;DHT22;12680;57.804;12.190;2023-04-25T10:08:35;9.00;99.90
24522;DHT22;12680;57.804;12.190;2023-04-25T10:11:04;10.20;99.90
24522;DHT22;12680;57.804;12.190;2023-04-25T10:13:32;8.90;99.90
24522;DHT22;12680;57.804;12.190;2023-04-25T10:16:01;8.90;99.90
24522;DHT22;12680;57.804;12.190;2023-04-25T10:18:29;8.80;99.90
24522;DHT22;12680;57.804;12.190;2023-04-25T10:20:58;8.80;99.90
24522;DHT22;12680;57.804;12.190;2023-04-25T10:23:26;9.50;99.90
24522;DHT22;12680;57.804;12.190;2023-04-25T10:25:54;10.30;99.90
24522;DHT22;12680;57.804;12.190;2023-04-25T10:28:21;10.00;99.90
24522;DHT22;12680;57.804;12.190;2023-04-25T10:30:57;8.90;99.90
24522;DHT22;12680;57.804;12.190;2023-04-25T10:33:39;8.90;99.90
24522;DHT22;12680;57.804;12.190;2023-04-25T10:36:20;9.70;99.90
24522;DHT22;12680;57.804;12.190;2023-04-25T10:38:50;9.00;99.90
24522;DHT22;12680;57.804;12.190;2023-04-25T10:41:18;9.10;99.90
24522;DHT22;12680;57.804;12.190;2023-04-25T10:43:47;9.60;99.90
24522;DHT22;12680;57.804;12.190;2023-04-25T10:46:28;9.40;99.90
24522;DHT22;12680;57.804;12.190;2023-04-25T10:48:59;9.60;99.90
24522;DHT22;12680;57.804;12.190;2023-04-25T10:51:31;9.60;99.90
24522;DHT22;12680;57.804;12.190;2023-04-25T10:54:18;9.60;99.90
24522;DHT22;12680;57.804;12.190;2023-04-25T10:56:48;9.60;99.90
24522;DHT22;12680;57.804;12.190;2023-04-25T10:59:19;9.50;99.90
24522;DHT22;12680;57.804;12.190;2023-04-25T11:01:51;9.50;99.90
24522;DHT22;12680;57.804;12.190;2023-04-25T11:04:20;9.40;99.90
24522;DHT22;12680;57.804;12.190;2023-04-25T11:09:38;9.40;99.90
24522;DHT22;12680;57.804;12.190;2023-04-25T11:12:08;9.90;99.90
24522;DHT22;12680;57.804;12.190;2023-04-25T11:14:36;9.40;99.90
24522;DHT22;12680;57.804;12.190;2023-04-25T11:17:02;9.40;99.90
24522;DHT22;12680;57.804;12.190;2023-04-25T11:19:29;9.40;99.90
24522;DHT22;12680;57.804;12.190;2023-04-25T11:22:01;10.60;99.90
24522;DHT22;12680;57.804;12.190;2023-04-25T11:24:28;10.40;99.90
24522;DHT22;12680;57.804;12.190;2023-04-25T11:26:56;9.40;99.90
24522;DHT22;12680;57.804;12.190;2023-04-25T11:29:26;9.40;99.90
24522;DHT22;12680;57.804;12.190;2023-04-25T11:31:54;9.30;99.90
24522;DHT22;12680;57.804;12.190;2023-04-25T11:34:25;9.20;99.90
24522;DHT22;12680;57.804;12.190;2023-04-25T11:36:52;10.30;99.90
24522;DHT22;12680;57.804;12.190;2023-04-25T11:39:20;9.20;99.90
24522;DHT22;12680;57.804;12.190;2023-04-25T11:41:47;10.60;99.90
24522;DHT22;12680;57.804;12.190;2023-04-25T11:44:18;9.10;99.90
24522;DHT22;12680;57.804;12.190;2023-04-25T11:46:45;10.20;99.90
24522;DHT22;12680;57.804;12.190;2023-04-25T11:49:13;9.00;99.90
24522;DHT22;12680;57.804;12.190;2023-04-25T11:51:42;9.00;99.90
24522;DHT22;12680;57.804;12.190;2023-04-25T11:54:10;9.00;99.90
24522;DHT22;12680;57.804;12.190;2023-04-25T11:56:42;9.00;99.90
24522;DHT22;12680;57.804;12.190;2023-04-25T11:59:09;10.00;99.90
24522;DHT22;12680;57.804;12.190;2023-04-25T12:01:39;8.90;99.90
24522;DHT22;12680;57.804;12.190;2023-04-25T12:04:14;9.00;99.90
24522;DHT22;12680;57.804;12.190;2023-04-25T12:06:42;9.20;99.90
24522;DHT22;12680;57.804;12.190;2023-04-25T12:09:11;9.30;99.90
24522;DHT22;12680;57.804;12.190;2023-04-25T12:11:52;10.90;99.90
24522;DHT22;12680;57.804;12.190;2023-04-25T12:14:27;9.40;99.90
24522;DHT22;12680;57.804;12.190;2023-04-25T12:16:56;11.20;99.90
24522;DHT22;12680;57.804;12.190;2023-04-25T12:19:24;9.40;99.90
24522;DHT22;12680;57.804;12.190;2023-04-25T12:21:52;9.40;99.90
24522;DHT22;12680;57.804;12.190;2023-04-25T12:24:26;9.30;99.90
24522;DHT22;12680;57.804;12.190;2023-04-25T12:27:00;9.40;99.90
24522;DHT22;12680;57.804;12.190;2023-04-25T12:29:30;9.30;99.90
24522;DHT22;12680;57.804;12.190;2023-04-25T12:32:13;9.30;99.90
24522;DHT22;12680;57.804;12.190;2023-04-25T12:34:40;9.20;99.90
24522;DHT22;12680;57.804;12.190;2023-04-25T12:37:07;9.10;99.90
24522;DHT22;12680;57.804;12.190;2023-04-25T12:39:34;9.10;99.90
24522;DHT22;12680;57.804;12.190;2023-04-25T12:42:01;9.10;99.90
24522;DHT22;12680;57.804;12.190;2023-04-25T12:44:27;9.00;99.90
24522;DHT22;12680;57.804;12.190;2023-04-25T12:46:54;9.00;99.90
24522;DHT22;12680;57.804;12.190;2023-04-25T12:49:22;9.10;99.90
24522;DHT22;12680;57.804;12.190;2023-04-25T12:51:50;9.10;99.90
24522;DHT22;12680;57.804;12.190;2023-04-25T12:54:18;9.10;99.90
24522;DHT22;12680;57.804;12.190;2023-04-25T12:56:44;9.00;99.90
24522;DHT22;12680;57.804;12.190;2023-04-25T12:59:12;9.00;99.90
24522;DHT22;12680;57.804;12.190;2023-04-25T13:01:39;8.90;99.90
24522;DHT22;12680;57.804;12.190;2023-04-25T13:04:06;8.90;99.90
24522;DHT22;12680;57.804;12.190;2023-04-25T13:06:33;8.90;99.90
24522;DHT22;12680;57.804;12.190;2023-04-25T13:08:59;8.80;99.90
24522;DHT22;12680;57.804;12.190;2023-04-25T13:11:26;8.70;99.90
24522;DHT22;12680;57.804;12.190;2023-04-25T13:13:53;8.60;99.90
24522;DHT22;12680;57.804;12.190;2023-04-25T13:16:20;10.30;99.90
24522;DHT22;12680;57.804;12.190;2023-04-25T13:18:48;8.50;99.90
24522;DHT22;12680;57.804;12.190;2023-04-25T13:21:15;8.60;99.90
24522;DHT22;12680;57.804;12.190;2023-04-25T13:23:42;8.60;99.90
24522;DHT22;12680;57.804;12.190;2023-04-25T13:26:13;8.50;99.90
24522;DHT22;12680;57.804;12.190;2023-04-25T13:28:39;8.50;99.90
24522;DHT22;12680;57.804;12.190;2023-04-25T13:31:10;8.50;99.90
24522;DHT22;12680;57.804;12.190;2023-04-25T13:33:37;8.60;99.90
24522;DHT22;12680;57.804;12.190;2023-04-25T13:36:04;8.60;99.90
24522;DHT22;12680;57.804;12.190;2023-04-25T13:38:32;8.60;99.90
24522;DHT22;12680;57.804;12.190;2023-04-25T13:40:59;8.60;99.90
24522;DHT22;12680;57.804;12.190;2023-04-25T13:43:26;8.60;99.90
24522;DHT22;12680;57.804;12.190;2023-04-25T13:45:52;8.70;99.90
24522;DHT22;12680;57.804;12.190;2023-04-25T13:48:19;8.90;99.90
24522;DHT22;12680;57.804;12.190;2023-04-25T13:50:46;8.90;99.90
24522;DHT22;12680;57.804;12.190;2023-04-25T13:53:13;8.90;99.90
24522;DHT22;12680;57.804;12.190;2023-04-25T13:55:40;8.90;99.90
24522;DHT22;12680;57.804;12.190;2023-04-25T13:58:06;9.30;99.90
24522;DHT22;12680;57.804;12.190;2023-04-25T14:00:38;10.20;99.90
24522;DHT22;12680;57.804;12.190;2023-04-25T14:03:06;8.70;99.90
24522;DHT22;12680;57.804;12.190;2023-04-25T14:05:35;9.70;99.90
24522;DHT22;12680;57.804;12.190;2023-04-25T14:08:06;8.60;99.90
24522;DHT22;12680;57.804;12.190;2023-04-25T14:10:34;8.50;99.90
24522;DHT22;12680;57.804;12.190;2023-04-25T14:13:01;8.40;99.90
24522;DHT22;12680;57.804;12.190;2023-04-25T14:15:33;8.40;99.90
24522;DHT22;12680;57.804;12.190;2023-04-25T14:18:00;8.30;99.90
24522;DHT22;12680;57.804;12.190;2023-04-25T14:20:28;8.30;99.90
24522;DHT22;12680;57.804;12.190;2023-04-25T14:22:54;8.40;99.90
24522;DHT22;12680;57.804;12.190;2023-04-25T14:25:24;8.40;99.90
24522;DHT22;12680;57.804;12.190;2023-04-25T14:27:51;8.40;99.90
24522;DHT22;12680;57.804;12.190;2023-04-25T14:30:19;8.50;99.90
24522;DHT22;12680;57.804;12.190;2023-04-25T14:32:48;10.00;99.90
24522;DHT22;12680;57.804;12.190;2023-04-25T14:35:15;8.70;99.90
24522;DHT22;12680;57.804;12.190;2023-04-25T14:37:42;8.80;99.90
24522;DHT22;12680;57.804;12.190;2023-04-25T14:40:09;8.80;99.90
24522;DHT22;12680;57.804;12.190;2023-04-25T14:42:37;8.70;99.90
24522;DHT22;12680;57.804;12.190;2023-04-25T14:45:05;8.70;99.90
24522;DHT22;12680;57.804;12.190;2023-04-25T14:47:34;8.60;99.90
24522;DHT22;12680;57.804;12.190;2023-04-25T14:50:01;8.60;99.90
24522;DHT22;12680;57.804;12.190;2023-04-25T14:52:28;8.60;99.90
24522;DHT22;12680;57.804;12.190;2023-04-25T14:54:55;8.60;99.90
24522;DHT22;12680;57.804;12.190;2023-04-25T14:57:22;9.00;99.90
24522;DHT22;12680;57.804;12.190;2023-04-25T14:59:49;8.60;99.90
24522;DHT22;12680;57.804;12.190;2023-04-25T15:02:16;8.60;99.90
24522;DHT22;12680;57.804;12.190;2023-04-25T15:04:42;8.60;99.90
24522;DHT22;12680;57.804;12.190;2023-04-25T15:07:09;8.60;99.90
24522;DHT22;12680;57.804;12.190;2023-04-25T15:09:36;8.60;99.90
24522;DHT22;12680;57.804;12.190;2023-04-25T15:12:03;9.10;99.90
24522;DHT22;12680;57.804;12.190;2023-04-25T15:14:30;8.90;99.90
24522;DHT22;12680;57.804;12.190;2023-04-25T15:16:57;8.90;99.90
24522;DHT22;12680;57.804;12.190;2023-04-25T15:19:24;8.80;99.90
24522;DHT22;12680;57.804;12.190;2023-04-25T15:21:51;8.80;99.90
24522;DHT22;12680;57.804;12.190;2023-04-25T15:24:18;8.70;99.90
24522;DHT22;12680;57.804;12.190;2023-04-25T15:26:45;8.60;99.90
24522;DHT22;12680;57.804;12.190;2023-04-25T15:29:12;9.30;99.90
24522;DHT22;12680;57.804;12.190;2023-04-25T15:31:39;8.40;99.90
24522;DHT22;12680;57.804;12.190;2023-04-25T15:34:06;10.00;99.90